createdAt,value
2023-03-16T00:00:53.983Z,2.05
2023-03-16T00:03:21.953Z,1.48
2023-03-16T00:05:51.553Z,1.60
2023-03-16T00:08:19.617Z,2.03
2023-03-16T00:10:47.992Z,2.12
2023-03-16T00:13:17.170Z,2.67
2023-03-16T00:15:55.378Z,2.15
2023-03-16T00:18:27.220Z,2.42
2023-03-16T00:20:59.511Z,2.37
2023-03-16T00:23:27.371Z,1.40
2023-03-16T00:25:59.699Z,1.48
2023-03-16T00:28:28.361Z,1.80
2023-03-16T00:30:59.181Z,1.48
2023-03-16T00:33:27.367Z,1.95
2023-03-16T00:36:02.382Z,1.40
2023-03-16T00:41:04.177Z,1.40
2023-03-16T00:43:41.029Z,1.42
2023-03-16T00:46:13.437Z,1.83
2023-03-16T00:48:43.482Z,1.95
2023-03-16T00:51:16.292Z,1.62
2023-03-16T00:53:45.187Z,1.87
2023-03-16T00:56:14.065Z,2.53
2023-03-16T00:58:43.522Z,2.03
2023-03-16T01:01:15.219Z,3.72
2023-03-16T01:03:42.951Z,1.33
2023-03-16T01:06:17.120Z,3.50
2023-03-16T01:08:45.378Z,1.87
2023-03-16T01:11:17.432Z,3.15
2023-03-16T01:13:47.181Z,1.92
2023-03-16T01:16:16.146Z,3.17
2023-03-16T01:18:43.596Z,1.27
2023-03-16T01:21:15.508Z,1.42
2023-03-16T01:23:44.243Z,2.55
2023-03-16T01:26:12.836Z,1.98
2023-03-16T01:28:40.256Z,3.15
2023-03-16T01:31:09.964Z,2.95
2023-03-16T01:33:38.490Z,3.05
2023-03-16T01:36:10.448Z,1.85
2023-03-16T01:38:38.445Z,1.92
2023-03-16T01:41:06.182Z,2.20
2023-03-16T01:43:35.103Z,1.65
2023-03-16T01:46:05.702Z,1.95
2023-03-16T01:48:37.617Z,1.20
2023-03-16T01:51:08.058Z,1.95
2023-03-16T01:53:36.069Z,1.75
2023-03-16T01:56:08.392Z,2.00
2023-03-16T01:58:37.486Z,1.70
2023-03-16T02:01:05.546Z,1.95
2023-03-16T02:03:36.477Z,1.95
2023-03-16T02:06:11.789Z,2.40
2023-03-16T02:08:42.874Z,1.97
2023-03-16T02:11:10.450Z,1.95
2023-03-16T02:13:38.677Z,1.77
2023-03-16T02:16:07.603Z,2.05
2023-03-16T02:18:35.354Z,1.67
2023-03-16T02:21:35.246Z,1.60
2023-03-16T02:24:04.600Z,1.83
2023-03-16T02:27:08.305Z,2.05
2023-03-16T02:30:02.357Z,2.30
2023-03-16T02:32:32.619Z,2.35
2023-03-16T02:35:02.466Z,1.90
2023-03-16T02:37:30.026Z,2.20
2023-03-16T02:39:57.450Z,1.20
2023-03-16T02:42:26.533Z,1.48
2023-03-16T02:44:58.412Z,1.23
2023-03-16T02:47:43.795Z,1.95
2023-03-16T02:50:13.072Z,1.92
2023-03-16T02:52:41.929Z,3.17
2023-03-16T02:55:09.747Z,3.30
2023-03-16T02:57:37.182Z,0.95
2023-03-16T03:00:11.685Z,2.75
2023-03-16T03:02:39.303Z,2.45
2023-03-16T03:05:07.209Z,1.77
2023-03-16T03:07:34.769Z,2.15
2023-03-16T03:10:03.019Z,1.70
2023-03-16T03:12:31.147Z,1.52
2023-03-16T03:14:59.050Z,1.52
2023-03-16T03:17:30.213Z,1.77
2023-03-16T03:19:59.789Z,1.85
2023-03-16T03:22:27.327Z,2.25
2023-03-16T03:24:54.788Z,1.50
2023-03-16T03:27:22.868Z,2.00
2023-03-16T03:29:52.412Z,2.53
2023-03-16T03:32:22.452Z,2.40
2023-03-16T03:34:50.116Z,2.55
2023-03-16T03:37:17.557Z,2.28
2023-03-16T03:39:45.671Z,1.92
2023-03-16T03:42:13.854Z,1.35
2023-03-16T03:44:41.379Z,2.78
2023-03-16T03:47:09.016Z,2.28
2023-03-16T03:49:36.751Z,2.50
2023-03-16T03:52:05.100Z,1.95
2023-03-16T03:54:32.634Z,2.50
2023-03-16T03:57:00.697Z,2.05
2023-03-16T03:59:28.081Z,2.17
2023-03-16T04:01:57.370Z,2.33
2023-03-16T04:04:25.652Z,2.37
2023-03-16T04:06:53.213Z,1.05
2023-03-16T04:09:20.853Z,1.23
2023-03-16T04:11:48.743Z,1.73
2023-03-16T04:14:16.152Z,2.45
2023-03-16T04:16:44.479Z,2.78
2023-03-16T04:19:12.845Z,2.35
2023-03-16T04:21:40.259Z,1.55
2023-03-16T04:24:07.877Z,2.75
2023-03-16T04:26:36.500Z,2.95
2023-03-16T04:29:04.223Z,4.20
2023-03-16T04:31:32.123Z,4.37
2023-03-16T04:34:00.007Z,1.73
2023-03-16T04:36:27.476Z,2.40
2023-03-16T04:38:55.863Z,2.78
2023-03-16T04:41:24.263Z,2.55
2023-03-16T04:43:52.571Z,1.98
2023-03-16T04:46:20.156Z,2.47
2023-03-16T04:48:47.940Z,2.33
2023-03-16T04:51:15.491Z,2.22
2023-03-16T04:53:44.662Z,3.53
2023-03-16T04:56:19.701Z,2.35
2023-03-16T04:58:49.394Z,1.73
2023-03-16T05:01:18.422Z,1.85
2023-03-16T05:03:46.477Z,2.70
2023-03-16T05:06:14.544Z,2.87
2023-03-16T05:08:42.521Z,3.90
2023-03-16T05:11:10.250Z,3.33
2023-03-16T05:13:38.503Z,1.02
2023-03-16T05:16:07.229Z,2.12
2023-03-16T05:18:35.606Z,2.42
2023-03-16T05:21:03.178Z,2.45
2023-03-16T05:23:32.119Z,2.55
2023-03-16T05:26:01.047Z,3.33
2023-03-16T05:28:28.893Z,2.50
2023-03-16T05:30:57.876Z,2.25
2023-03-16T05:33:25.763Z,2.85
2023-03-16T05:35:54.278Z,3.03
2023-03-16T05:38:23.033Z,1.83
2023-03-16T05:40:53.171Z,1.70
2023-03-16T05:43:23.168Z,1.52
2023-03-16T05:45:50.851Z,1.75
2023-03-16T05:48:18.510Z,1.90
2023-03-16T05:50:47.005Z,2.87
2023-03-16T05:53:15.327Z,2.50
2023-03-16T05:55:42.957Z,4.15
2023-03-16T05:58:11.889Z,2.25
2023-03-16T06:00:39.707Z,3.62
2023-03-16T06:03:08.024Z,3.33
2023-03-16T06:05:35.893Z,1.80
2023-03-16T06:08:03.781Z,4.10
2023-03-16T06:10:31.779Z,2.15
2023-03-16T06:13:00.018Z,2.80
2023-03-16T06:15:30.411Z,3.72
2023-03-16T06:17:58.878Z,2.72
2023-03-16T06:20:26.476Z,2.62
2023-03-16T06:22:55.838Z,2.58
2023-03-16T06:25:24.169Z,2.95
2023-03-16T06:27:52.189Z,2.20
2023-03-16T06:30:20.418Z,2.55
2023-03-16T06:32:48.649Z,2.67
2023-03-16T06:35:16.177Z,3.75
2023-03-16T06:37:44.593Z,3.30
2023-03-16T06:40:15.378Z,2.78
2023-03-16T06:42:43.720Z,4.03
2023-03-16T06:45:13.814Z,2.25
2023-03-16T06:47:41.340Z,2.22
2023-03-16T06:50:11.903Z,4.12
2023-03-16T06:52:41.556Z,2.53
2023-03-16T06:55:09.769Z,2.78
2023-03-16T06:57:37.877Z,3.42
2023-03-16T07:00:07.405Z,3.22
2023-03-16T07:02:35.814Z,1.45
2023-03-16T07:05:03.911Z,2.55
2023-03-16T07:07:31.651Z,2.47
2023-03-16T07:09:59.331Z,1.70
2023-03-16T07:12:26.742Z,3.05
2023-03-16T07:14:55.324Z,2.55
2023-03-16T07:17:23.251Z,2.22
2023-03-16T07:19:50.802Z,4.43
2023-03-16T07:22:19.410Z,3.53
2023-03-16T07:24:46.907Z,2.12
2023-03-16T07:27:14.728Z,3.42
2023-03-16T07:29:42.998Z,3.05
2023-03-16T07:32:10.532Z,3.12
2023-03-16T07:34:38.277Z,2.62
2023-03-16T07:37:06.540Z,3.35
2023-03-16T07:39:35.548Z,3.20
2023-03-16T07:42:04.232Z,4.03
2023-03-16T07:44:32.379Z,3.53
2023-03-16T07:46:59.787Z,3.97
2023-03-16T07:49:28.396Z,5.93
2023-03-16T07:51:56.688Z,3.95
2023-03-16T07:54:25.272Z,2.55
2023-03-16T07:56:52.694Z,3.70
2023-03-16T07:59:23.386Z,3.30
2023-03-16T08:01:50.891Z,3.08
2023-03-16T08:04:19.104Z,2.05
2023-03-16T08:06:47.894Z,2.92
2023-03-16T08:09:15.467Z,3.50
2023-03-16T08:11:44.399Z,3.67
2023-03-16T08:14:11.842Z,4.25
2023-03-16T08:16:40.482Z,3.75
2023-03-16T08:19:08.662Z,3.55
2023-03-16T08:21:45.788Z,3.47
2023-03-16T08:24:24.397Z,3.95
2023-03-16T08:26:51.803Z,3.00
2023-03-16T08:29:19.605Z,4.75
2023-03-16T08:31:48.192Z,3.95
2023-03-16T08:34:16.118Z,4.22
2023-03-16T08:36:44.209Z,3.92
2023-03-16T08:39:12.230Z,3.80
2023-03-16T08:41:40.950Z,3.12
2023-03-16T08:44:10.752Z,2.72
2023-03-16T08:46:39.286Z,3.22
2023-03-16T08:49:06.993Z,3.78
2023-03-16T08:51:34.613Z,2.45
2023-03-16T08:54:02.296Z,2.95
2023-03-16T08:56:30.508Z,3.15
2023-03-16T08:58:58.515Z,3.00
2023-03-16T09:01:26.815Z,3.40
2023-03-16T09:03:54.991Z,2.65
2023-03-16T09:06:22.619Z,3.62
2023-03-16T09:08:50.314Z,3.03
2023-03-16T09:11:19.017Z,2.97
2023-03-16T09:13:47.284Z,3.03
2023-03-16T09:16:16.260Z,3.10
2023-03-16T09:18:43.981Z,3.95
2023-03-16T09:21:13.869Z,4.30
2023-03-16T09:23:42.860Z,4.55
2023-03-16T09:26:12.531Z,4.03
2023-03-16T09:28:42.250Z,2.65
2023-03-16T09:31:16.801Z,3.40
2023-03-16T09:33:44.461Z,4.20
2023-03-16T09:36:13.470Z,3.33
2023-03-16T09:38:42.380Z,3.70
2023-03-16T09:41:22.468Z,3.28
2023-03-16T09:44:09.193Z,2.78
2023-03-16T09:46:42.353Z,3.37
2023-03-16T09:49:11.954Z,3.67
2023-03-16T09:51:51.319Z,2.35
2023-03-16T09:54:24.948Z,2.92
2023-03-16T09:56:52.873Z,3.67
2023-03-16T09:59:22.532Z,3.75
2023-03-16T10:01:58.322Z,4.50
2023-03-16T10:04:47.242Z,3.33
2023-03-16T10:07:30.152Z,2.62
2023-03-16T10:10:00.456Z,2.80
2023-03-16T10:12:35.269Z,3.22
2023-03-16T10:15:06.770Z,3.65
2023-03-16T10:17:44.804Z,4.03
2023-03-16T10:20:20.701Z,3.40
2023-03-16T10:22:50.834Z,3.30
2023-03-16T10:25:35.808Z,3.42
2023-03-16T10:28:03.183Z,3.12
2023-03-16T10:30:38.592Z,4.07
2023-03-16T10:33:25.871Z,4.40
2023-03-16T10:36:05.684Z,4.07
2023-03-16T10:38:49.388Z,3.28
2023-03-16T10:41:20.649Z,4.47
2023-03-16T10:43:52.612Z,2.42
2023-03-16T10:46:20.369Z,2.62
2023-03-16T10:48:53.209Z,3.55
2023-03-16T10:51:25.675Z,3.17
2023-03-16T10:53:54.509Z,3.00
2023-03-16T10:56:25.467Z,2.42
2023-03-16T10:58:52.883Z,2.70
2023-03-16T11:01:27.601Z,2.42
2023-03-16T11:03:57.082Z,3.05
2023-03-16T11:06:33.051Z,2.97
2023-03-16T11:09:09.706Z,3.08
2023-03-16T11:11:37.398Z,2.62
2023-03-16T11:14:12.841Z,2.67
2023-03-16T11:16:46.633Z,3.05
2023-03-16T11:19:27.269Z,3.45
2023-03-16T11:22:04.654Z,3.40
2023-03-16T11:24:54.176Z,2.95
2023-03-16T11:27:37.112Z,2.87
2023-03-16T11:30:11.786Z,2.92
2023-03-16T11:32:41.515Z,2.40
2023-03-16T11:35:18.414Z,2.85
2023-03-16T11:37:51.853Z,2.12
2023-03-16T11:40:41.184Z,2.37
2023-03-16T11:43:39.505Z,2.40
2023-03-16T11:46:20.186Z,2.47
2023-03-16T11:48:53.378Z,3.08
2023-03-16T11:52:15.490Z,2.70
2023-03-16T11:55:10.718Z,2.65
2023-03-16T11:58:09.732Z,2.25
2023-03-16T12:01:24.734Z,2.05
2023-03-16T12:03:58.460Z,2.17
2023-03-16T12:06:33.916Z,1.45
2023-03-16T12:09:06.436Z,2.35
2023-03-16T12:11:48.214Z,1.35
2023-03-16T12:14:30.300Z,2.10
2023-03-16T12:17:04.898Z,2.50
2023-03-16T12:19:50.875Z,2.03
2023-03-16T12:22:27.079Z,1.25
2023-03-16T12:24:55.245Z,1.70
2023-03-16T12:27:38.849Z,1.33
2023-03-16T12:30:15.341Z,1.55
2023-03-16T12:32:53.499Z,1.40
2023-03-16T12:35:45.733Z,2.00
2023-03-16T12:38:28.772Z,2.05
2023-03-16T12:41:17.665Z,1.75
2023-03-16T12:44:12.641Z,1.42
2023-03-16T12:47:15.460Z,1.83
2023-03-16T12:49:43.213Z,1.58
2023-03-16T12:52:12.858Z,1.92
2023-03-16T12:55:17.722Z,1.20
2023-03-16T12:57:47.217Z,1.75
2023-03-16T13:00:15.690Z,1.95
2023-03-16T13:02:47.286Z,1.80
2023-03-16T13:05:17.694Z,1.52
2023-03-16T13:08:06.857Z,1.05
2023-03-16T13:10:34.852Z,1.48
2023-03-16T13:13:15.028Z,2.60
2023-03-16T13:15:47.379Z,1.08
2023-03-16T13:18:15.057Z,1.25
2023-03-16T13:20:48.476Z,1.42
2023-03-16T13:23:19.150Z,0.90
2023-03-16T13:26:16.977Z,1.05
2023-03-16T13:28:51.018Z,1.27
2023-03-16T13:31:35.895Z,1.33
2023-03-16T13:34:04.177Z,1.37
2023-03-16T13:36:32.698Z,1.08
2023-03-16T13:39:15.541Z,1.23
2023-03-16T13:41:43.810Z,0.98
2023-03-16T13:44:14.829Z,1.25
2023-03-16T13:46:42.283Z,1.85
2023-03-16T13:49:12.445Z,2.12
2023-03-16T13:51:40.005Z,1.17
2023-03-16T13:54:23.612Z,1.40
2023-03-16T13:56:53.002Z,1.05
2023-03-16T13:59:21.609Z,1.27
2023-03-16T14:01:49.243Z,1.50
2023-03-16T14:04:20.072Z,1.00
2023-03-16T14:07:01.954Z,1.30
2023-03-16T14:09:34.498Z,0.98
2023-03-16T14:12:02.564Z,1.48
2023-03-16T14:14:32.397Z,1.12
2023-03-16T14:17:02.953Z,1.17
2023-03-16T14:19:36.097Z,1.10
2023-03-16T14:22:06.933Z,1.25
2023-03-16T14:24:37.421Z,0.90
2023-03-16T14:27:21.833Z,1.20
2023-03-16T14:30:15.433Z,1.75
2023-03-16T14:32:58.492Z,1.27
2023-03-16T14:35:31.850Z,1.35
2023-03-16T14:38:21.760Z,1.35
2023-03-16T14:40:54.885Z,1.70
2023-03-16T14:43:29.318Z,2.03
2023-03-16T14:45:57.521Z,1.73
2023-03-16T14:48:25.353Z,0.60
2023-03-16T14:50:54.864Z,1.00
2023-03-16T14:53:24.283Z,1.30
2023-03-16T14:55:52.228Z,1.70
2023-03-16T14:58:19.632Z,1.62
2023-03-16T15:00:53.157Z,1.30
2023-03-16T15:03:27.063Z,1.30
2023-03-16T15:05:54.767Z,1.02
2023-03-16T15:08:28.712Z,1.25
2023-03-16T15:10:58.909Z,1.25
2023-03-16T15:13:42.496Z,1.08
2023-03-16T15:16:11.730Z,1.67
2023-03-16T15:18:39.904Z,1.52
2023-03-16T15:21:12.965Z,0.77
2023-03-16T15:23:42.884Z,1.20
2023-03-16T15:26:16.120Z,1.67
2023-03-16T15:28:43.990Z,1.40
2023-03-16T15:31:14.209Z,1.30
2023-03-16T15:33:42.215Z,2.00
2023-03-16T15:36:20.494Z,1.23
2023-03-16T15:38:53.985Z,1.35
2023-03-16T15:41:23.461Z,3.50
2023-03-16T15:43:52.698Z,1.90
2023-03-16T15:46:20.900Z,2.25
2023-03-16T15:48:48.594Z,2.92
2023-03-16T15:51:30.705Z,1.95
2023-03-16T15:54:00.443Z,1.25
2023-03-16T15:56:51.019Z,0.82
2023-03-16T15:59:22.242Z,1.25
2023-03-16T16:01:50.624Z,1.40
2023-03-16T16:04:23.501Z,1.42
2023-03-16T16:06:54.809Z,1.98
2023-03-16T16:09:22.824Z,1.10
2023-03-16T16:11:51.432Z,1.42
2023-03-16T16:14:24.816Z,1.77
2023-03-16T16:16:54.430Z,2.10
2023-03-16T16:19:22.060Z,1.95
2023-03-16T16:21:49.540Z,1.48
2023-03-16T16:24:18.394Z,1.85
2023-03-16T16:26:54.941Z,1.12
2023-03-16T16:29:25.768Z,1.35
2023-03-16T16:31:53.449Z,1.52
2023-03-16T16:34:24.659Z,1.45
2023-03-16T16:36:56.485Z,1.62
2023-03-16T16:39:24.255Z,1.85
2023-03-16T16:41:54.677Z,1.08
2023-03-16T16:44:24.683Z,2.67
2023-03-16T16:46:52.820Z,1.52
2023-03-16T16:49:31.059Z,2.37
2023-03-16T16:51:59.617Z,1.30
2023-03-16T16:54:31.264Z,1.52
2023-03-16T16:56:59.945Z,1.42
2023-03-16T16:59:32.182Z,1.52
2023-03-16T17:02:16.420Z,1.83
2023-03-16T17:04:43.927Z,2.00
2023-03-16T17:07:12.633Z,2.40
2023-03-16T17:09:40.072Z,2.85
2023-03-16T17:12:21.177Z,1.77
2023-03-16T17:14:49.864Z,1.58
2023-03-16T17:17:18.068Z,1.50
2023-03-16T17:19:46.927Z,1.45
2023-03-16T17:22:25.953Z,2.33
2023-03-16T17:24:54.207Z,1.90
2023-03-16T17:27:26.163Z,1.73
2023-03-16T17:29:54.298Z,2.65
2023-03-16T17:32:25.744Z,2.15
2023-03-16T17:34:53.488Z,3.30
2023-03-16T17:37:22.176Z,3.72
2023-03-16T17:39:49.944Z,3.00
2023-03-16T17:42:19.509Z,4.75
2023-03-16T17:44:51.145Z,2.90
2023-03-16T17:47:27.396Z,2.62
2023-03-16T17:49:55.039Z,2.37
2023-03-16T17:52:25.734Z,1.75
2023-03-16T17:54:54.261Z,2.47
2023-03-16T17:57:28.952Z,12.63
2023-03-16T17:59:57.305Z,9.52
2023-03-16T18:02:41.989Z,3.40
2023-03-16T18:05:22.132Z,2.37
2023-03-16T18:07:50.886Z,1.62
2023-03-16T18:10:21.961Z,2.50
2023-03-16T18:12:55.626Z,2.25
2023-03-16T18:15:31.133Z,2.28
2023-03-16T18:17:58.586Z,2.83
2023-03-16T18:20:30.955Z,2.30
2023-03-16T18:23:00.049Z,2.22
2023-03-16T18:25:30.333Z,2.12
2023-03-16T18:27:58.527Z,2.25
2023-03-16T18:30:27.243Z,2.58
2023-03-16T18:32:55.638Z,3.75
2023-03-16T18:35:23.240Z,4.35
2023-03-16T18:37:50.942Z,3.62
2023-03-16T18:40:19.246Z,3.90
2023-03-16T18:42:47.557Z,2.78
2023-03-16T18:45:16.628Z,2.42
2023-03-16T18:47:50.534Z,3.47
2023-03-16T18:50:21.943Z,2.37
2023-03-16T18:52:50.463Z,3.30
2023-03-16T18:55:21.194Z,3.85
2023-03-16T18:57:56.400Z,3.50
2023-03-16T19:02:57.000Z,2.95
2023-03-16T19:05:35.660Z,2.15
2023-03-16T19:08:05.027Z,2.47
2023-03-16T19:10:37.976Z,2.53
2023-03-16T19:13:14.580Z,3.92
2023-03-16T19:15:42.468Z,5.15
2023-03-16T19:18:10.282Z,3.70
2023-03-16T19:20:37.817Z,3.62
2023-03-16T19:23:08.921Z,7.70
2023-03-16T19:25:38.569Z,5.43
2023-03-16T19:28:10.284Z,7.50
2023-03-16T19:30:38.611Z,5.60
2023-03-16T19:33:18.317Z,6.45
2023-03-16T19:35:51.919Z,4.53
2023-03-16T19:38:22.270Z,7.12
2023-03-16T19:40:54.347Z,3.60
2023-03-16T19:43:23.398Z,4.22
2023-03-16T19:45:51.059Z,3.40
2023-03-16T19:48:42.320Z,3.70
2023-03-16T19:51:14.784Z,4.65
2023-03-16T19:53:42.863Z,7.05
2023-03-16T19:56:20.948Z,8.25
2023-03-16T19:58:52.365Z,9.43
2023-03-16T20:01:23.443Z,5.90
2023-03-16T20:03:52.900Z,8.20
2023-03-16T20:06:22.818Z,8.75
2023-03-16T20:08:51.354Z,14.13
2023-03-16T20:11:28.619Z,6.20
2023-03-16T20:13:56.758Z,7.20
2023-03-16T20:16:36.214Z,7.87
2023-03-16T20:19:12.288Z,6.43
2023-03-16T20:21:40.657Z,8.82
2023-03-16T20:24:16.287Z,13.15
2023-03-16T20:26:45.685Z,13.02
2023-03-16T20:29:28.717Z,13.60
2023-03-16T20:31:56.910Z,7.87
2023-03-16T20:34:27.086Z,6.75
2023-03-16T20:36:55.116Z,7.05
2023-03-16T20:39:22.820Z,5.03
2023-03-16T20:41:50.930Z,4.85
2023-03-16T20:44:20.147Z,4.62
2023-03-16T20:46:48.056Z,4.03
2023-03-16T20:49:25.433Z,3.40
2023-03-16T20:51:53.283Z,4.20
2023-03-16T20:54:20.943Z,5.80
2023-03-16T20:56:49.194Z,4.80
2023-03-16T20:59:20.344Z,3.75
2023-03-16T21:01:49.698Z,4.37
2023-03-16T21:04:26.178Z,4.45
2023-03-16T21:06:54.242Z,3.83
2023-03-16T21:09:22.215Z,3.83
2023-03-16T21:11:49.885Z,4.47
2023-03-16T21:14:22.003Z,3.85
2023-03-16T21:16:50.581Z,4.12
2023-03-16T21:19:21.126Z,4.05
2023-03-16T21:21:48.641Z,2.72
2023-03-16T21:24:16.548Z,5.53
2023-03-16T21:26:45.169Z,4.75
2023-03-16T21:29:17.532Z,4.43
2023-03-16T21:31:45.358Z,5.10
2023-03-16T21:34:22.460Z,6.75
2023-03-16T21:36:50.434Z,4.22
2023-03-16T21:39:20.268Z,3.70
2023-03-16T21:41:50.557Z,3.70
2023-03-16T21:44:18.693Z,3.15
2023-03-16T21:46:47.409Z,3.83
2023-03-16T21:49:15.789Z,5.12
2023-03-16T21:51:43.812Z,4.68
2023-03-16T21:54:14.671Z,3.62
2023-03-16T21:56:43.035Z,3.45
2023-03-16T21:59:11.606Z,3.87
2023-03-16T22:01:50.879Z,4.07
2023-03-16T22:04:26.759Z,3.60
2023-03-16T22:06:54.204Z,4.18
2023-03-16T22:09:29.891Z,4.50
2023-03-16T22:11:57.712Z,5.43
2023-03-16T22:14:25.219Z,6.70
2023-03-16T22:16:52.688Z,7.62
2023-03-16T22:19:21.025Z,5.85
2023-03-16T22:21:49.901Z,5.15
2023-03-16T22:24:19.703Z,4.78
2023-03-16T22:26:49.060Z,4.20
2023-03-16T22:29:29.573Z,6.47
2023-03-16T22:32:01.404Z,4.47
2023-03-16T22:34:37.441Z,5.60
2023-03-16T22:37:05.699Z,4.80
2023-03-16T22:39:36.925Z,3.45
2023-03-16T22:42:39.112Z,6.45
2023-03-16T22:45:19.057Z,6.32
2023-03-16T22:47:47.782Z,8.45
2023-03-16T22:50:16.650Z,6.60
2023-03-16T22:52:46.357Z,6.62
2023-03-16T22:55:20.462Z,7.68
2023-03-16T22:57:50.584Z,7.70
2023-03-16T23:00:21.384Z,6.47
2023-03-16T23:02:49.304Z,4.93
2023-03-16T23:05:22.705Z,5.37
2023-03-16T23:07:51.936Z,4.80
2023-03-16T23:10:22.911Z,3.37
2023-03-16T23:12:51.817Z,4.47
2023-03-16T23:15:25.255Z,5.85
2023-03-16T23:17:53.138Z,2.70
2023-03-16T23:20:26.162Z,2.45
2023-03-16T23:22:54.383Z,2.85
2023-03-16T23:25:23.557Z,3.58
2023-03-16T23:27:51.831Z,2.72
2023-03-16T23:30:24.134Z,2.87
2023-03-16T23:32:53.656Z,2.30
2023-03-16T23:35:23.870Z,2.05
2023-03-16T23:37:51.849Z,2.97
2023-03-16T23:40:20.664Z,2.15
2023-03-16T23:42:49.038Z,3.00
2023-03-16T23:45:44.554Z,2.12
2023-03-16T23:48:18.062Z,2.87
2023-03-16T23:50:47.811Z,2.25
2023-03-16T23:53:17.683Z,1.95
2023-03-16T23:55:45.731Z,2.25
2023-03-16T23:58:14.454Z,2.33
